Time;durP1;ratioP1;P1;durP2;ratioP2;P2;SDS_P1;SDS_P2;PMS_P1;PMS_P2;Temp;Humidity;BMP_temperature;BMP_pressure;BME280_temperature;BME280_humidity;BME280_pressure;Samples;Min_cycle;Max_cycle;Signal;HPM_P1;HPM_P2
2022/09/12 00:00:33;;;;;;;50.23;35.67;;;;;;;;;;5012282;28;20182;-67
2022/09/12 00:03:00;;;;;;;48.47;34.27;;;;;;;;;;5013456;28;20259;-68
2022/09/12 00:05:27;;;;;;;48.40;33.83;;;;;;;;;;5013417;28;20180;-67
2022/09/12 00:07:53;;;;;;;48.87;34.47;;;;;;;;;;5012919;28;20196;-67
2022/09/12 00:10:19;;;;;;;52.03;35.80;;;;;;;;;;5013904;28;20245;-67
2022/09/12 00:12:45;;;;;;;50.60;34.77;;;;;;;;;;5013364;28;20214;-68
2022/09/12 00:15:11;;;;;;;50.73;34.03;;;;;;;;;;5013939;28;20545;-67
2022/09/12 00:17:37;;;;;;;48.80;33.47;;;;;;;;;;5013497;28;20211;-67
2022/09/12 00:20:08;;;;;;;51.00;33.03;;;;;;;;;;5012037;28;20555;-67
2022/09/12 00:22:34;;;;;;;49.37;33.97;;;;;;;;;;5013581;28;20183;-67
2022/09/12 00:25:00;;;;;;;50.73;34.27;;;;;;;;;;5013473;28;20207;-68
2022/09/12 00:27:26;;;;;;;52.33;36.03;;;;;;;;;;5013247;28;20656;-67
2022/09/12 00:29:52;;;;;;;50.50;35.30;;;;;;;;;;5013531;28;20160;-68
2022/09/12 00:32:18;;;;;;;55.20;36.33;;;;;;;;;;5013220;28;20605;-67
2022/09/12 00:34:44;;;;;;;51.80;33.80;;;;;;;;;;5013591;28;20172;-67
2022/09/12 00:37:11;;;;;;;48.73;33.77;;;;;;;;;;5012947;28;20527;-67
2022/09/12 00:39:36;;;;;;;46.40;31.97;;;;;;;;;;5013056;28;20244;-67
2022/09/12 00:42:03;;;;;;;48.53;33.30;;;;;;;;;;5013581;28;20191;-67
2022/09/12 00:44:29;;;;;;;52.17;39.15;;;;;;;;;;5011132;28;20380;-67
2022/09/12 00:47:06;;;;;;;58.07;41.97;;;;;;;;;;5010831;28;20381;-68
2022/09/12 00:49:43;;;;;;;52.80;36.23;;;;;;;;;;5014780;28;20615;-67
2022/09/12 00:52:14;;;;;;;48.70;33.97;;;;;;;;;;5016028;28;20164;-67
2022/09/12 00:54:43;;;;;;;48.00;32.07;;;;;;;;;;5015240;28;20175;-68
2022/09/12 00:57:10;;;;;;;48.90;33.40;;;;;;;;;;5014505;28;20566;-68
2022/09/12 00:59:45;;;;;;;56.80;37.37;;;;;;;;;;5014034;28;20257;-67
2022/09/12 01:02:11;;;;;;;51.33;33.17;;;;;;;;;;5013646;28;20210;-68
2022/09/12 01:04:38;;;;;;;53.17;33.80;;;;;;;;;;5012145;28;20215;-68
2022/09/12 01:07:05;;;;;;;55.07;34.23;;;;;;;;;;5013066;28;20682;-68
2022/09/12 01:09:31;;;;;;;52.73;35.00;;;;;;;;;;5011502;28;20204;-67
2022/09/12 01:11:58;;;;;;;59.57;37.63;;;;;;;;;;5012826;28;20184;-67
2022/09/12 01:14:24;;;;;;;63.17;37.93;;;;;;;;;;5013170;28;20601;-68
2022/09/12 01:16:50;;;;;;;60.37;35.73;;;;;;;;;;5012842;28;20633;-67
2022/09/12 01:19:17;;;;;;;59.37;36.90;;;;;;;;;;5014021;28;20214;-67
2022/09/12 01:22:06;;;;;;;58.37;34.90;;;;;;;;;;5016641;28;20168;-67
2022/09/12 01:24:42;;;;;;;51.77;36.27;;;;;;;;;;5014835;28;20825;-67
2022/09/12 01:27:14;;;;;;;53.47;35.53;;;;;;;;;;5016401;28;20191;-67
2022/09/12 01:29:49;;;;;;;56.43;35.43;;;;;;;;;;5016079;28;20203;-67
2022/09/12 01:32:21;;;;;;;55.30;36.80;;;;;;;;;;5016302;28;20222;-67
2022/09/12 01:35:07;;;;;;;58.37;35.93;;;;;;;;;;5016077;28;20176;-67
2022/09/12 01:37:43;;;;;;;58.50;37.07;;;;;;;;;;5014908;28;20214;-67
2022/09/12 01:40:15;;;;;;;63.60;37.97;;;;;;;;;;5015550;28;20237;-67
2022/09/12 01:42:45;;;;;;;60.97;39.40;;;;;;;;;;5016107;28;20617;-67
2022/09/12 01:45:18;;;;;;;64.50;39.20;;;;;;;;;;5016168;28;20160;-68
2022/09/12 01:47:51;;;;;;;65.90;38.63;;;;;;;;;;5015927;28;20541;-67
2022/09/12 01:50:19;;;;;;;65.03;36.97;;;;;;;;;;5015661;28;20184;-67
2022/09/12 01:52:53;;;;;;;58.60;37.50;;;;;;;;;;5015752;28;20187;-67
2022/09/12 01:55:29;;;;;;;52.57;35.00;;;;;;;;;;5015554;28;20184;-67
2022/09/12 01:57:58;;;;;;;56.07;36.97;;;;;;;;;;5014104;28;20211;-67
2022/09/12 02:00:24;;;;;;;57.83;35.47;;;;;;;;;;5015551;28;20183;-67
2022/09/12 02:03:08;;;;;;;56.50;37.50;;;;;;;;;;5014300;28;20187;-67
2022/09/12 02:05:36;;;;;;;55.60;36.13;;;;;;;;;;5015530;28;20167;-67
2022/09/12 02:08:08;;;;;;;57.77;35.97;;;;;;;;;;5014075;28;20207;-67
2022/09/12 02:10:41;;;;;;;61.47;38.17;;;;;;;;;;5015533;28;20188;-67
2022/09/12 02:13:11;;;;;;;67.10;39.90;;;;;;;;;;5015328;28;20259;-67
2022/09/12 02:15:39;;;;;;;66.93;39.93;;;;;;;;;;5015280;28;20315;-68
2022/09/12 02:18:05;;;;;;;67.60;39.13;;;;;;;;;;5015101;28;20294;-67
2022/09/12 02:20:37;;;;;;;66.67;38.33;;;;;;;;;;5015178;28;20551;-68
2022/09/12 02:23:05;;;;;;;60.27;38.33;;;;;;;;;;5015151;28;20179;-68
2022/09/12 02:25:31;;;;;;;55.23;35.23;;;;;;;;;;5013763;28;20180;-68
2022/09/12 02:28:01;;;;;;;59.83;37.60;;;;;;;;;;5014895;28;20638;-67
2022/09/12 02:30:30;;;;;;;62.23;36.83;;;;;;;;;;5012797;28;20275;-67
2022/09/12 02:33:11;;;;;;;64.60;38.23;;;;;;;;;;5013716;28;20216;-67
2022/09/12 02:35:46;;;;;;;70.70;40.07;;;;;;;;;;5014918;28;20598;-67
2022/09/12 02:38:14;;;;;;;64.23;38.67;;;;;;;;;;5014869;28;20207;-67
2022/09/12 02:40:40;;;;;;;63.90;40.10;;;;;;;;;;5013586;28;20183;-68
2022/09/12 02:43:06;;;;;;;64.23;39.47;;;;;;;;;;5013513;28;20183;-68
2022/09/12 02:45:33;;;;;;;64.70;36.97;;;;;;;;;;5014724;28;20549;-67
2022/09/12 02:47:59;;;;;;;60.30;37.23;;;;;;;;;;5013392;28;20203;-67
2022/09/12 02:50:25;;;;;;;61.07;37.70;;;;;;;;;;5014901;28;20640;-67
2022/09/12 02:52:54;;;;;;;63.67;38.30;;;;;;;;;;5014794;28;20190;-67
2022/09/12 02:55:20;;;;;;;61.20;37.87;;;;;;;;;;5013361;28;20215;-67
2022/09/12 02:57:46;;;;;;;60.07;36.67;;;;;;;;;;5014403;28;20234;-67
2022/09/12 03:00:13;;;;;;;64.27;37.27;;;;;;;;;;5014591;28;20179;-68
2022/09/12 03:02:57;;;;;;;60.27;36.37;;;;;;;;;;5013218;28;20175;-68
2022/09/12 03:05:31;;;;;;;61.33;36.23;;;;;;;;;;5014577;28;20180;-67
2022/09/12 03:07:57;;;;;;;61.27;36.67;;;;;;;;;;5013305;28;20204;-67
2022/09/12 03:10:32;;;;;;;56.63;36.53;;;;;;;;;;5014300;28;20668;-68
2022/09/12 03:13:05;;;;;;;59.03;37.50;;;;;;;;;;5014475;28;20186;-68
2022/09/12 03:15:51;;;;;;;61.17;37.10;;;;;;;;;;5012910;28;20184;-68
2022/09/12 03:18:18;;;;;;;64.30;35.50;;;;;;;;;;5014224;28;20214;-67
2022/09/12 03:20:44;;;;;;;58.07;35.53;;;;;;;;;;5014416;28;20178;-67
2022/09/12 03:23:15;;;;;;;62.23;36.80;;;;;;;;;;5014332;28;20203;-68
2022/09/12 03:25:44;;;;;;;55.70;35.87;;;;;;;;;;5012656;28;20640;-67
2022/09/12 03:28:16;;;;;;;57.47;35.03;;;;;;;;;;5012615;28;20223;-67
2022/09/12 03:30:43;;;;;;;62.03;35.23;;;;;;;;;;5013904;28;20183;-67
2022/09/12 03:33:13;;;;;;;59.60;34.03;;;;;;;;;;5014111;28;20699;-68
2022/09/12 03:35:39;;;;;;;53.97;32.57;;;;;;;;;;5013923;28;20187;-67
2022/09/12 03:38:06;;;;;;;48.93;32.60;;;;;;;;;;5013770;28;20212;-67
2022/09/12 03:40:33;;;;;;;54.50;33.30;;;;;;;;;;5013842;28;20226;-67
2022/09/12 03:42:59;;;;;;;54.07;31.87;;;;;;;;;;5013745;28;20179;-67
2022/09/12 03:45:25;;;;;;;50.33;31.93;;;;;;;;;;5013709;28;20589;-67
2022/09/12 03:47:51;;;;;;;48.37;31.37;;;;;;;;;;5013767;28;20279;-67
2022/09/12 03:50:17;;;;;;;50.50;31.90;;;;;;;;;;5012402;28;20736;-68
2022/09/12 03:52:43;;;;;;;45.00;30.53;;;;;;;;;;5013871;28;20242;-68
2022/09/12 03:55:09;;;;;;;49.93;30.70;;;;;;;;;;5012402;28;20600;-68
2022/09/12 03:57:35;;;;;;;44.80;30.37;;;;;;;;;;5013532;28;20286;-68
2022/09/12 04:00:01;;;;;;;41.57;30.20;;;;;;;;;;5014098;28;20258;-67
2022/09/12 04:02:28;;;;;;;42.23;29.37;;;;;;;;;;5013586;28;20180;-68
2022/09/12 04:04:54;;;;;;;48.07;29.53;;;;;;;;;;5013570;28;20207;-68
2022/09/12 04:07:20;;;;;;;44.37;29.37;;;;;;;;;;5013334;28;20175;-68
2022/09/12 04:09:46;;;;;;;42.77;27.60;;;;;;;;;;5013710;28;20206;-67
2022/09/12 04:12:12;;;;;;;44.30;27.43;;;;;;;;;;5013425;28;20176;-68
2022/09/12 04:14:39;;;;;;;40.13;26.43;;;;;;;;;;5013451;28;20258;-68
2022/09/12 04:17:05;;;;;;;41.53;27.47;;;;;;;;;;5013645;28;20215;-68
2022/09/12 04:19:31;;;;;;;47.83;26.73;;;;;;;;;;5011862;28;20211;-68
2022/09/12 04:21:57;;;;;;;47.20;27.37;;;;;;;;;;5013385;28;20180;-70
2022/09/12 04:24:22;;;;;;;35.10;25.20;;;;;;;;;;5013502;28;20178;-68
2022/09/12 04:26:49;;;;;;;40.00;27.33;;;;;;;;;;5013208;28;20187;-67
2022/09/12 04:29:15;;;;;;;40.53;25.77;;;;;;;;;;5013117;28;20215;-67
2022/09/12 04:31:41;;;;;;;36.00;24.77;;;;;;;;;;5013152;28;20176;-67
2022/09/12 04:34:07;;;;;;;38.10;25.67;;;;;;;;;;5013712;28;20188;-69
2022/09/12 04:36:33;;;;;;;39.63;26.47;;;;;;;;;;5013305;28;20179;-67
2022/09/12 04:39:00;;;;;;;36.13;25.60;;;;;;;;;;5011655;28;20265;-67
2022/09/12 04:41:31;;;;;;;44.97;27.57;;;;;;;;;;5028726;23;20220;-67
2022/09/12 04:44:00;;;;;;;49.70;26.53;;;;;;;;;;5014599;28;20203;-64
2022/09/12 04:46:26;;;;;;;37.30;23.87;;;;;;;;;;5012977;28;20184;-64
2022/09/12 04:48:52;;;;;;;43.87;27.03;;;;;;;;;;5013409;28;20180;-64
2022/09/12 04:51:26;;;;;;;37.83;24.80;;;;;;;;;;5013587;28;20708;-64
2022/09/12 04:53:53;;;;;;;36.53;24.50;;;;;;;;;;5014839;28;20283;-64
2022/09/12 04:56:19;;;;;;;35.33;24.83;;;;;;;;;;5018396;28;20698;-64
2022/09/12 04:58:46;;;;;;;36.37;23.87;;;;;;;;;;5020090;28;20208;-64
2022/09/12 05:01:16;;;;;;;34.00;24.33;;;;;;;;;;5020687;28;20227;-64
2022/09/12 05:03:43;;;;;;;37.80;23.80;;;;;;;;;;5021384;28;20199;-63
2022/09/12 05:06:10;;;;;;;36.03;25.53;;;;;;;;;;5021971;28;20187;-66
2022/09/12 05:08:36;;;;;;;31.67;24.17;;;;;;;;;;5020929;28;20262;-62
2022/09/12 05:11:03;;;;;;;38.80;24.73;;;;;;;;;;5018570;28;20279;-64
2022/09/12 05:13:30;;;;;;;34.40;23.37;;;;;;;;;;5016376;28;20671;-64
2022/09/12 05:15:56;;;;;;;33.20;23.00;;;;;;;;;;5016309;28;20215;-67
2022/09/12 05:18:22;;;;;;;32.73;23.13;;;;;;;;;;5016013;28;20603;-66
2022/09/12 05:20:49;;;;;;;32.73;22.70;;;;;;;;;;5015682;28;20214;-64
2022/09/12 05:23:15;;;;;;;35.07;23.77;;;;;;;;;;5016097;28;20180;-64
2022/09/12 05:25:47;;;;;;;43.87;25.93;;;;;;;;;;5019348;28;20585;-66
2022/09/12 05:28:13;;;;;;;42.40;26.17;;;;;;;;;;5019754;28;20212;-66
2022/09/12 05:30:39;;;;;;;35.20;23.50;;;;;;;;;;5016838;28;20186;-66
2022/09/12 05:33:05;;;;;;;36.57;24.40;;;;;;;;;;5016874;28;20214;-67
2022/09/12 05:35:32;;;;;;;36.67;23.33;;;;;;;;;;5017375;28;20219;-67
2022/09/12 05:37:58;;;;;;;35.87;24.23;;;;;;;;;;5017701;28;20654;-67
2022/09/12 05:40:23;;;;;;;35.67;23.03;;;;;;;;;;5019532;28;20212;-67
2022/09/12 05:42:49;;;;;;;34.10;22.60;;;;;;;;;;5018175;28;20222;-67
2022/09/12 05:45:15;;;;;;;27.60;20.70;;;;;;;;;;5019792;28;20230;-67
2022/09/12 05:47:42;;;;;;;31.77;21.13;;;;;;;;;;5018001;28;20658;-67
2022/09/12 05:50:10;;;;;;;33.73;22.00;;;;;;;;;;5018282;28;20176;-67
2022/09/12 05:52:36;;;;;;;32.73;20.60;;;;;;;;;;5016753;28;20231;-67
2022/09/12 05:55:03;;;;;;;32.20;21.07;;;;;;;;;;5019809;28;20220;-67
2022/09/12 05:57:29;;;;;;;28.17;19.67;;;;;;;;;;5019447;28;20199;-67
2022/09/12 05:59:55;;;;;;;29.17;19.20;;;;;;;;;;5016234;28;20242;-67
2022/09/12 06:02:21;;;;;;;30.33;18.50;;;;;;;;;;5017720;28;20196;-67
2022/09/12 06:04:47;;;;;;;24.57;18.50;;;;;;;;;;5018246;28;20172;-67
2022/09/12 06:07:13;;;;;;;27.07;17.87;;;;;;;;;;5017486;28;20706;-67
2022/09/12 06:09:39;;;;;;;24.27;17.73;;;;;;;;;;5015594;28;20236;-67
2022/09/12 06:12:06;;;;;;;21.83;17.13;;;;;;;;;;5016826;28;20602;-67
2022/09/12 06:14:32;;;;;;;22.17;16.57;;;;;;;;;;5015673;28;20603;-67
2022/09/12 06:16:58;;;;;;;21.63;17.53;;;;;;;;;;5017796;28;20183;-67
2022/09/12 06:19:26;;;;;;;24.00;16.27;;;;;;;;;;5016769;28;20199;-66
2022/09/12 06:21:53;;;;;;;23.77;16.57;;;;;;;;;;5016802;28;20203;-67
2022/09/12 06:24:19;;;;;;;21.63;17.27;;;;;;;;;;5017097;28;20683;-68
2022/09/12 06:26:46;;;;;;;25.90;18.03;;;;;;;;;;5016897;28;20180;-66
2022/09/12 06:29:12;;;;;;;19.73;15.80;;;;;;;;;;5015683;28;20187;-66
2022/09/12 06:31:40;;;;;;;24.43;16.43;;;;;;;;;;5016919;28;20195;-67
2022/09/12 06:34:07;;;;;;;24.40;16.63;;;;;;;;;;5015395;28;20659;-67
2022/09/12 06:36:35;;;;;;;20.13;16.40;;;;;;;;;;5015046;28;20188;-68
2022/09/12 06:39:02;;;;;;;20.13;15.50;;;;;;;;;;5016025;28;20223;-67
2022/09/12 06:41:30;;;;;;;21.03;16.50;;;;;;;;;;5016360;28;20208;-67
2022/09/12 06:43:56;;;;;;;21.83;16.43;;;;;;;;;;5016012;28;20206;-67
2022/09/12 06:46:22;;;;;;;18.13;14.60;;;;;;;;;;5017618;28;20176;-67
2022/09/12 06:48:49;;;;;;;20.50;17.07;;;;;;;;;;5014555;28;20536;-67
2022/09/12 06:51:16;;;;;;;21.50;17.53;;;;;;;;;;5015616;28;20621;-67
2022/09/12 06:53:43;;;;;;;22.20;17.17;;;;;;;;;;5016681;28;20203;-68
2022/09/12 06:56:13;;;;;;;25.03;18.83;;;;;;;;;;5014941;28;20285;-67
2022/09/12 06:58:40;;;;;;;25.23;17.93;;;;;;;;;;5015000;28;20208;-67
2022/09/12 07:01:07;;;;;;;24.80;18.03;;;;;;;;;;5014476;28;20184;-67
2022/09/12 07:03:33;;;;;;;25.10;18.90;;;;;;;;;;5016845;28;20275;-68
2022/09/12 07:06:06;;;;;;;23.37;17.80;;;;;;;;;;5016820;28;20176;-68
2022/09/12 07:08:33;;;;;;;23.90;17.23;;;;;;;;;;5014744;28;20633;-68
2022/09/12 07:11:07;;;;;;;23.13;17.50;;;;;;;;;;5014629;28;20555;-68
2022/09/12 07:13:33;;;;;;;24.50;17.37;;;;;;;;;;5015110;28;20176;-67
2022/09/12 07:16:04;;;;;;;24.43;17.33;;;;;;;;;;5016095;28;20184;-68
2022/09/12 07:18:30;;;;;;;21.80;17.10;;;;;;;;;;5015230;28;20564;-67
2022/09/12 07:20:56;;;;;;;22.90;16.60;;;;;;;;;;5015266;28;20225;-68
2022/09/12 07:23:22;;;;;;;21.93;16.73;;;;;;;;;;5014132;28;20176;-68
2022/09/12 07:25:52;;;;;;;22.00;15.93;;;;;;;;;;5014138;28;20216;-67
2022/09/12 07:28:18;;;;;;;24.33;17.13;;;;;;;;;;5015231;28;20266;-67
2022/09/12 07:30:44;;;;;;;21.93;16.77;;;;;;;;;;5015266;28;20687;-67
2022/09/12 07:33:10;;;;;;;19.63;15.20;;;;;;;;;;5016103;28;20267;-67
2022/09/12 07:35:36;;;;;;;20.27;16.07;;;;;;;;;;5013657;28;20644;-67
2022/09/12 07:38:02;;;;;;;20.07;15.90;;;;;;;;;;5014361;28;20204;-67
2022/09/12 07:40:28;;;;;;;20.10;15.17;;;;;;;;;;5014688;28;20619;-67
2022/09/12 07:42:54;;;;;;;21.17;15.67;;;;;;;;;;5015602;28;20218;-67
2022/09/12 07:45:20;;;;;;;21.63;15.40;;;;;;;;;;5014402;28;20648;-67
2022/09/12 07:47:46;;;;;;;17.13;14.80;;;;;;;;;;5014434;28;20242;-68
2022/09/12 07:50:12;;;;;;;19.93;15.73;;;;;;;;;;5015554;28;20176;-68
2022/09/12 07:52:38;;;;;;;19.80;15.67;;;;;;;;;;5015331;28;20291;-68
2022/09/12 07:55:04;;;;;;;17.97;14.67;;;;;;;;;;5014741;28;20187;-67
2022/09/12 07:57:30;;;;;;;19.27;15.20;;;;;;;;;;5015762;28;20199;-67
2022/09/12 07:59:56;;;;;;;20.43;14.63;;;;;;;;;;5016120;28;20652;-67
2022/09/12 08:02:22;;;;;;;24.77;15.63;;;;;;;;;;5014713;28;20203;-67
2022/09/12 08:04:48;;;;;;;18.23;15.10;;;;;;;;;;5015721;28;20652;-67
2022/09/12 08:07:14;;;;;;;20.47;15.13;;;;;;;;;;5015000;28;20183;-67
2022/09/12 08:09:40;;;;;;;20.40;14.70;;;;;;;;;;5014351;28;20184;-67
2022/09/12 08:12:06;;;;;;;19.27;15.13;;;;;;;;;;5014318;28;20203;-67
2022/09/12 08:14:32;;;;;;;20.20;14.23;;;;;;;;;;5013876;28;20190;-67
2022/09/12 08:16:58;;;;;;;19.13;15.00;;;;;;;;;;5014185;28;20243;-67
2022/09/12 08:19:24;;;;;;;28.50;15.30;;;;;;;;;;5015924;28;20203;-67
2022/09/12 08:21:50;;;;;;;24.13;17.10;;;;;;;;;;5014860;28;20288;-67
2022/09/12 08:24:16;;;;;;;19.40;15.77;;;;;;;;;;5014672;28;20179;-68
2022/09/12 08:26:42;;;;;;;21.27;17.27;;;;;;;;;;5015633;28;20180;-66
2022/09/12 08:29:08;;;;;;;41.07;25.83;;;;;;;;;;5016182;28;20716;-67
2022/09/12 08:31:35;;;;;;;42.03;26.10;;;;;;;;;;5019448;28;20701;-67
2022/09/12 08:34:02;;;;;;;20.83;15.10;;;;;;;;;;5019130;28;20688;-66
2022/09/12 08:36:28;;;;;;;19.37;14.37;;;;;;;;;;5017312;28;20183;-67
2022/09/12 08:38:58;;;;;;;20.37;14.37;;;;;;;;;;5016681;28;20295;-65
2022/09/12 08:41:33;;;;;;;24.60;15.63;;;;;;;;;;5018308;28;20200;-65
2022/09/12 08:44:15;;;;;;;20.37;14.63;;;;;;;;;;5018455;28;20647;-67
2022/09/12 08:46:41;;;;;;;20.13;14.20;;;;;;;;;;5019005;28;20703;-67
2022/09/12 08:49:10;;;;;;;27.87;18.63;;;;;;;;;;5019144;28;20179;-67
2022/09/12 08:51:36;;;;;;;30.03;20.67;;;;;;;;;;5017464;28;20753;-67
2022/09/12 08:54:04;;;;;;;27.13;19.00;;;;;;;;;;5019086;28;20204;-67
2022/09/12 08:56:34;;;;;;;21.97;16.20;;;;;;;;;;5018105;28;20227;-67
2022/09/12 08:59:00;;;;;;;18.60;14.23;;;;;;;;;;5017534;28;20722;-66
2022/09/12 09:01:36;;;;;;;21.33;16.67;;;;;;;;;;5019198;28;20203;-66
2022/09/12 09:04:15;;;;;;;19.27;14.30;;;;;;;;;;5017389;28;20617;-67
2022/09/12 09:06:53;;;;;;;23.70;17.63;;;;;;;;;;5017479;28;20180;-67
2022/09/12 09:09:25;;;;;;;22.67;14.67;;;;;;;;;;5019076;28;20184;-67
2022/09/12 09:11:57;;;;;;;19.57;12.80;;;;;;;;;;5018759;28;20306;-67
2022/09/12 09:14:48;;;;;;;18.97;13.63;;;;;;;;;;5018163;28;20176;-66
2022/09/12 09:17:24;;;;;;;19.67;14.73;;;;;;;;;;5019101;28;20207;-67
2022/09/12 09:19:56;;;;;;;21.03;15.80;;;;;;;;;;5019538;28;20187;-66
2022/09/12 09:22:31;;;;;;;22.83;15.50;;;;;;;;;;5020710;28;20199;-67
2022/09/12 09:25:01;;;;;;;17.30;14.40;;;;;;;;;;5020179;28;20252;-67
2022/09/12 09:27:42;;;;;;;23.67;15.27;;;;;;;;;;5019585;28;20685;-66
2022/09/12 09:30:16;;;;;;;23.50;15.70;;;;;;;;;;5018747;28;20180;-67
2022/09/12 09:32:44;;;;;;;22.27;15.10;;;;;;;;;;5019855;28;20203;-67
2022/09/12 09:35:27;;;;;;;20.77;15.43;;;;;;;;;;5018316;28;20254;-67
2022/09/12 09:37:56;;;;;;;20.60;15.50;;;;;;;;;;5019527;28;20163;-67
2022/09/12 09:40:24;;;;;;;24.27;14.43;;;;;;;;;;5018700;28;20183;-67
2022/09/12 09:42:50;;;;;;;20.73;14.27;;;;;;;;;;5019935;28;20233;-67
2022/09/12 09:45:19;;;;;;;22.47;13.87;;;;;;;;;;5019106;28;20655;-67
2022/09/12 09:47:48;;;;;;;23.50;12.83;;;;;;;;;;5019452;28;20637;-67
2022/09/12 09:50:16;;;;;;;24.37;12.97;;;;;;;;;;5019374;28;20184;-67
2022/09/12 09:52:42;;;;;;;16.93;12.63;;;;;;;;;;5020159;28;20231;-67
2022/09/12 09:55:14;;;;;;;18.07;12.90;;;;;;;;;;5019184;28;20191;-67
2022/09/12 09:57:41;;;;;;;16.13;12.03;;;;;;;;;;5019740;28;20172;-67
2022/09/12 10:00:24;;;;;;;12.67;9.87;;;;;;;;;;5019432;28;20640;-67
2022/09/12 10:03:14;;;;;;;15.07;10.97;;;;;;;;;;5019962;28;20274;-67
2022/09/12 10:05:48;;;;;;;15.20;11.13;;;;;;;;;;5011611;28;20338;-67
2022/09/12 10:08:34;;;;;;;15.37;12.00;;;;;;;;;;5020035;28;20183;-68
2022/09/12 10:11:15;;;;;;;16.57;10.30;;;;;;;;;;5017735;28;20568;-67
2022/09/12 10:13:41;;;;;;;13.97;9.57;;;;;;;;;;5017917;28;20239;-67
2022/09/12 10:16:18;;;;;;;10.53;8.57;;;;;;;;;;5017871;28;20242;-67
2022/09/12 10:18:44;;;;;;;8.93;7.97;;;;;;;;;;5020188;28;20198;-66
2022/09/12 10:21:38;;;;;;;9.63;8.53;;;;;;;;;;5018834;28;20276;-67
2022/09/12 10:24:23;;;;;;;8.50;7.60;;;;;;;;;;4996977;28;20198;-67
2022/09/12 10:26:51;;;;;;;9.83;7.77;;;;;;;;;;5018722;28;20180;-67
2022/09/12 10:29:20;;;;;;;12.27;8.30;;;;;;;;;;5017948;28;20234;-67
2022/09/12 10:31:50;;;;;;;11.73;7.77;;;;;;;;;;5016070;28;20568;-67
2022/09/12 10:34:35;;;;;;;10.27;7.73;;;;;;;;;;5018997;28;20184;-67
2022/09/12 10:37:04;;;;;;;9.23;8.10;;;;;;;;;;5018448;28;20259;-67
2022/09/12 10:39:30;;;;;;;9.20;7.40;;;;;;;;;;5016256;28;20204;-67
2022/09/12 10:41:56;;;;;;;7.83;6.20;;;;;;;;;;5016447;28;20231;-67
2022/09/12 10:44:29;;;;;;;10.23;7.60;;;;;;;;;;5017920;28;20225;-67
2022/09/12 10:46:56;;;;;;;12.17;7.20;;;;;;;;;;5018278;28;20168;-67
2022/09/12 10:49:23;;;;;;;7.53;6.70;;;;;;;;;;5016693;28;20186;-67
2022/09/12 10:51:49;;;;;;;7.53;6.10;;;;;;;;;;5016132;28;20345;-67
2022/09/12 10:54:17;;;;;;;6.87;6.20;;;;;;;;;;5017056;28;20179;-67
2022/09/12 10:56:46;;;;;;;7.23;6.17;;;;;;;;;;5015686;28;20192;-67
2022/09/12 10:59:12;;;;;;;8.00;6.50;;;;;;;;;;5030117;23;20766;-66
2022/09/12 11:01:46;;;;;;;6.93;6.23;;;;;;;;;;5014693;28;20171;-66
2022/09/12 11:04:30;;;;;;;12.17;6.93;;;;;;;;;;5013336;28;20188;-66
2022/09/12 11:06:56;;;;;;;7.43;5.97;;;;;;;;;;5014433;28;20591;-66
2022/09/12 11:09:45;;;;;;;7.83;5.83;;;;;;;;;;5014359;28;20203;-66
2022/09/12 11:12:18;;;;;;;7.33;4.93;;;;;;;;;;5005392;28;20206;-66
2022/09/12 11:14:44;;;;;;;7.90;4.80;;;;;;;;;;5014595;28;20218;-66
2022/09/12 11:17:09;;;;;;;8.23;4.43;;;;;;;;;;5014211;28;20175;-66
2022/09/12 11:19:49;;;;;;;5.87;5.13;;;;;;;;;;5012752;28;20223;-66
2022/09/12 11:22:31;;;;;;;8.77;4.77;;;;;;;;;;5014507;28;20164;-66
2022/09/12 11:25:00;;;;;;;10.30;6.50;;;;;;;;;;5014684;28;20168;-66
2022/09/12 11:27:31;;;;;;;10.13;7.80;;;;;;;;;;5014165;28;20179;-66
2022/09/12 11:30:11;;;;;;;8.27;6.30;;;;;;;;;;5012644;28;20290;-66
2022/09/12 11:32:58;;;;;;;6.63;5.40;;;;;;;;;;5013913;28;20184;-66
2022/09/12 11:35:27;;;;;;;7.23;4.90;;;;;;;;;;5013929;28;20171;-66
2022/09/12 11:38:02;;;;;;;7.47;5.60;;;;;;;;;;5012548;28;20215;-65
2022/09/12 11:40:32;;;;;;;8.37;4.60;;;;;;;;;;5014174;28;20175;-66
2022/09/12 11:43:01;;;;;;;7.60;5.00;;;;;;;;;;5014072;28;20186;-66
2022/09/12 11:45:40;;;;;;;5.80;4.87;;;;;;;;;;5014651;28;20180;-67
2022/09/12 11:48:08;;;;;;;7.53;5.10;;;;;;;;;;5013855;28;20178;-66
2022/09/12 11:50:34;;;;;;;5.73;4.83;;;;;;;;;;5014190;28;20179;-66
2022/09/12 11:53:05;;;;;;;4.50;4.10;;;;;;;;;;5014228;28;20271;-66
2022/09/12 11:55:37;;;;;;;5.33;4.83;;;;;;;;;;5014708;28;20168;-66
2022/09/12 11:58:04;;;;;;;9.23;6.47;;;;;;;;;;5012258;28;20200;-66
2022/09/12 12:00:36;;;;;;;7.57;5.47;;;;;;;;;;5012337;28;20229;-66
2022/09/12 12:03:14;;;;;;;8.43;5.17;;;;;;;;;;5013393;28;20553;-67
2022/09/12 12:05:43;;;;;;;6.73;3.93;;;;;;;;;;5013740;28;20222;-66
2022/09/12 12:08:10;;;;;;;7.70;3.97;;;;;;;;;;5013777;28;20624;-66
2022/09/12 12:10:36;;;;;;;3.93;3.53;;;;;;;;;;5012346;28;20271;-67
2022/09/12 12:13:05;;;;;;;5.07;3.83;;;;;;;;;;5012244;28;20674;-68
2022/09/12 12:15:31;;;;;;;4.97;4.00;;;;;;;;;;5013777;28;20190;-67
2022/09/12 12:18:02;;;;;;;7.83;4.20;;;;;;;;;;5015047;28;20593;-69
2022/09/12 12:20:28;;;;;;;6.57;4.83;;;;;;;;;;5013392;28;20178;-67
2022/09/12 12:22:54;;;;;;;7.93;4.30;;;;;;;;;;5015058;28;20176;-67
2022/09/12 12:25:20;;;;;;;8.20;5.80;;;;;;;;;;5033171;28;20171;-67
2022/09/12 12:27:53;;;;;;;10.27;6.23;;;;;;;;;;5014661;28;20649;-67
2022/09/12 12:30:28;;;;;;;10.57;6.53;;;;;;;;;;5014534;28;20187;-67
2022/09/12 12:33:01;;;;;;;6.43;4.70;;;;;;;;;;5013785;28;20179;-68
2022/09/12 12:35:36;;;;;;;7.07;3.40;;;;;;;;;;5013512;28;20645;-67
2022/09/12 12:38:03;;;;;;;12.20;4.07;;;;;;;;;;5013172;28;20637;-67
2022/09/12 12:40:30;;;;;;;8.53;4.80;;;;;;;;;;5013379;28;20699;-68
2022/09/12 12:43:00;;;;;;;4.83;3.83;;;;;;;;;;5013830;28;20180;-67
2022/09/12 12:45:26;;;;;;;5.67;3.57;;;;;;;;;;5011895;28;20172;-67
2022/09/12 12:48:08;;;;;;;3.97;3.33;;;;;;;;;;5013371;28;20183;-66
2022/09/12 12:50:34;;;;;;;4.60;3.37;;;;;;;;;;5013217;28;20199;-67
2022/09/12 12:53:03;;;;;;;4.47;4.03;;;;;;;;;;5011898;28;20270;-67
2022/09/12 12:55:37;;;;;;;8.70;4.07;;;;;;;;;;5013215;28;20171;-67
2022/09/12 12:58:07;;;;;;;4.43;3.40;;;;;;;;;;5011368;28;20203;-67
2022/09/12 13:00:40;;;;;;;6.73;3.20;;;;;;;;;;5013272;28;20172;-67
2022/09/12 13:03:06;;;;;;;4.23;3.37;;;;;;;;;;5011668;28;20187;-67
2022/09/12 13:05:52;;;;;;;8.93;5.23;;;;;;;;;;5011671;28;20180;-67
2022/09/12 13:08:17;;;;;;;6.00;3.50;;;;;;;;;;5013180;28;20203;-67
2022/09/12 13:10:56;;;;;;;6.37;4.07;;;;;;;;;;5013093;28;20565;-67
2022/09/12 13:13:38;;;;;;;3.90;3.43;;;;;;;;;;5013127;28;20186;-67
2022/09/12 13:16:04;;;;;;;6.53;3.60;;;;;;;;;;5015390;28;20172;-67
2022/09/12 13:18:50;;;;;;;3.77;3.10;;;;;;;;;;5014908;28;20277;-67
2022/09/12 13:21:17;;;;;;;3.33;3.03;;;;;;;;;;5016339;28;20196;-67
2022/09/12 13:23:43;;;;;;;7.53;3.43;;;;;;;;;;5016314;28;20640;-67
2022/09/12 13:26:20;;;;;;;7.57;3.53;;;;;;;;;;5016234;28;20189;-68
2022/09/12 13:28:46;;;;;;;3.87;3.47;;;;;;;;;;5016481;28;20206;-67
2022/09/12 13:31:23;;;;;;;5.30;3.83;;;;;;;;;;5016439;28;20184;-68
2022/09/12 13:33:53;;;;;;;6.57;4.70;;;;;;;;;;5016072;28;20187;-68
2022/09/12 13:36:19;;;;;;;;;;;;;;;;;;5016636;28;20030;-68
2022/09/12 13:38:44;;;;;;;;;;;;;;;;;;5016264;28;20328;-68
2022/09/12 13:41:40;;;;;;;4.33;3.80;;;;;;;;;;5014743;28;20401;-67
2022/09/12 13:44:10;;;;;;;4.63;3.77;;;;;;;;;;4963717;28;20189;-67
2022/09/12 13:46:36;;;;;;;5.03;4.07;;;;;;;;;;5016182;28;20164;-67
2022/09/12 13:49:06;;;;;;;6.47;4.10;;;;;;;;;;5014458;28;20779;-67
2022/09/12 13:51:33;;;;;;;4.63;4.00;;;;;;;;;;5015934;28;20172;-67
2022/09/12 13:54:02;;;;;;;3.43;3.13;;;;;;;;;;5014580;28;20195;-67
2022/09/12 13:56:28;;;;;;;4.50;3.57;;;;;;;;;;5015731;28;20255;-66
2022/09/12 13:58:59;;;;;;;3.90;3.50;;;;;;;;;;5015561;28;20636;-68
2022/09/12 14:01:36;;;;;;;5.10;3.43;;;;;;;;;;5014585;28;20249;-67
2022/09/12 14:06:55;;;;;;;7.63;4.53;;;;;;;;;;5015632;28;20175;-67
2022/09/12 14:09:27;;;;;;;3.80;3.50;;;;;;;;;;5014170;28;20203;-68
2022/09/12 14:11:54;;;;;;;7.77;4.53;;;;;;;;;;5014266;28;20180;-67
2022/09/12 14:14:32;;;;;;;5.13;3.73;;;;;;;;;;5015490;28;20716;-67
2022/09/12 14:16:59;;;;;;;4.23;3.60;;;;;;;;;;5014231;28;20632;-68
2022/09/12 14:19:26;;;;;;;4.33;3.70;;;;;;;;;;5015221;28;20286;-67
2022/09/12 14:21:52;;;;;;;5.20;4.67;;;;;;;;;;5013965;28;20763;-67
2022/09/12 14:24:23;;;;;;;9.52;4.07;;;;;;;;;;5015376;28;20660;-67
2022/09/12 14:26:49;;;;;;;4.63;3.70;;;;;;;;;;5012983;28;20168;-67
2022/09/12 14:29:16;;;;;;;4.25;3.17;;;;;;;;;;5015039;28;20218;-67
2022/09/12 14:31:42;;;;;;;4.78;4.13;;;;;;;;;;5015499;28;20644;-67
2022/09/12 14:34:19;;;;;;;3.80;3.40;;;;;;;;;;5015261;28;20368;-67
2022/09/12 14:36:47;;;;;;;5.23;4.00;;;;;;;;;;5015388;28;20164;-67
2022/09/12 14:39:25;;;;;;;4.83;3.87;;;;;;;;;;5014857;28;20216;-67
2022/09/12 14:42:00;;;;;;;3.97;3.60;;;;;;;;;;5015207;28;20549;-67